createdAt,value
2022-10-31T00:00:36.161Z,48.98
2022-10-31T00:01:36.105Z,48.82
2022-10-31T00:02:36.146Z,46.57
2022-10-31T00:03:36.113Z,46.57
2022-10-31T00:04:36.083Z,46.57
2022-10-31T00:05:36.072Z,46.41
2022-10-31T00:06:36.068Z,50.11
2022-10-31T00:07:36.101Z,46.57
2022-10-31T00:08:36.048Z,46.73
2022-10-31T00:09:36.044Z,46.41
2022-10-31T00:10:36.032Z,47.05
2022-10-31T00:11:36.041Z,46.57
2022-10-31T00:12:36.023Z,46.08
2022-10-31T00:13:36.037Z,49.15
2022-10-31T00:14:36.008Z,48.66
2022-10-31T00:15:36.002Z,48.34
2022-10-31T00:16:35.993Z,46.25
2022-10-31T00:17:35.999Z,46.89
2022-10-31T00:18:35.997Z,46.73
2022-10-31T00:19:35.975Z,46.08
2022-10-31T00:20:35.965Z,46.08
2022-10-31T00:21:35.958Z,49.63
2022-10-31T00:22:35.955Z,48.66
2022-10-31T00:23:35.949Z,48.18
2022-10-31T00:24:35.951Z,48.18
2022-10-31T00:25:35.933Z,47.37
2022-10-31T00:26:35.928Z,48.02
2022-10-31T00:27:35.924Z,46.25
2022-10-31T00:28:35.925Z,47.05
2022-10-31T00:29:35.923Z,50.92
2022-10-31T00:30:35.904Z,48.82
2022-10-31T00:31:35.912Z,50.43
2022-10-31T00:32:35.883Z,48.82
2022-10-31T00:33:35.874Z,44.96
2022-10-31T00:34:35.891Z,45.28
2022-10-31T00:35:35.859Z,47.86
2022-10-31T00:36:35.868Z,47.37
2022-10-31T00:37:35.847Z,45.92
2022-10-31T00:38:35.839Z,46.89
2022-10-31T00:39:35.843Z,45.12
2022-10-31T00:40:35.840Z,45.28
2022-10-31T00:41:35.812Z,46.89
2022-10-31T00:42:35.821Z,47.05
2022-10-31T00:43:35.806Z,45.28
2022-10-31T00:44:35.795Z,46.41
2022-10-31T00:45:35.803Z,45.44
2022-10-31T00:46:35.795Z,45.60
2022-10-31T00:47:35.787Z,47.21
2022-10-31T00:48:35.800Z,44.79
2022-10-31T00:49:35.762Z,44.96
2022-10-31T00:50:35.755Z,44.63
2022-10-31T00:51:35.792Z,45.92
2022-10-31T00:52:35.747Z,48.02
2022-10-31T00:53:35.742Z,45.44
2022-10-31T00:54:35.726Z,47.86
2022-10-31T00:55:35.728Z,45.92
2022-10-31T00:56:35.714Z,46.08
2022-10-31T00:57:35.727Z,48.34
2022-10-31T00:58:35.711Z,47.21
2022-10-31T00:59:35.699Z,46.89
2022-10-31T01:00:35.696Z,47.86
2022-10-31T01:01:35.808Z,45.44
2022-10-31T01:02:35.865Z,44.96
2022-10-31T01:03:35.664Z,45.12
2022-10-31T01:04:35.669Z,44.79
2022-10-31T01:05:35.665Z,45.76
2022-10-31T01:06:35.644Z,45.60
2022-10-31T01:07:35.636Z,47.37
2022-10-31T01:08:35.649Z,45.28
2022-10-31T01:09:35.628Z,44.96
2022-10-31T01:10:35.622Z,46.89
2022-10-31T01:11:35.615Z,45.12
2022-10-31T01:12:35.620Z,44.63
2022-10-31T01:13:35.611Z,45.76
2022-10-31T01:14:35.592Z,45.28
2022-10-31T01:15:35.583Z,45.28
2022-10-31T01:16:35.588Z,47.70
2022-10-31T01:17:35.588Z,45.92
2022-10-31T01:18:35.587Z,44.79
2022-10-31T01:19:35.564Z,46.73
2022-10-31T01:20:35.560Z,45.76
2022-10-31T01:21:35.554Z,44.15
2022-10-31T01:22:35.556Z,44.96
2022-10-31T01:23:35.554Z,48.82
2022-10-31T01:24:35.536Z,44.79
2022-10-31T01:25:35.519Z,43.51
2022-10-31T01:26:35.514Z,44.31
2022-10-31T01:27:35.506Z,46.25
2022-10-31T01:28:35.511Z,46.57
2022-10-31T01:29:35.538Z,45.44
2022-10-31T01:30:35.491Z,45.12
2022-10-31T01:31:35.487Z,49.47
2022-10-31T01:32:35.527Z,48.98
2022-10-31T01:33:35.479Z,45.12
2022-10-31T01:34:35.467Z,44.79
2022-10-31T01:35:35.460Z,45.28
2022-10-31T01:36:35.458Z,47.37
2022-10-31T01:37:35.451Z,49.31
2022-10-31T01:38:35.454Z,44.63
2022-10-31T01:39:35.461Z,45.76
2022-10-31T01:40:35.424Z,47.05
2022-10-31T01:41:35.420Z,46.73
2022-10-31T01:42:35.399Z,44.15
2022-10-31T01:43:35.428Z,44.31
2022-10-31T01:44:35.400Z,46.08
2022-10-31T01:45:35.386Z,48.82
2022-10-31T01:46:35.383Z,45.28
2022-10-31T01:47:35.383Z,44.96
2022-10-31T01:48:35.362Z,45.12
2022-10-31T01:49:35.379Z,47.70
2022-10-31T01:50:35.360Z,45.44
2022-10-31T01:51:35.352Z,45.92
2022-10-31T01:52:35.347Z,46.08
2022-10-31T01:53:35.343Z,44.96
2022-10-31T01:54:35.331Z,45.28
2022-10-31T01:55:35.327Z,49.47
2022-10-31T01:56:35.327Z,47.70
2022-10-31T01:57:35.299Z,45.44
2022-10-31T01:58:35.317Z,46.08
2022-10-31T01:59:35.316Z,44.96
2022-10-31T02:00:35.297Z,47.70
2022-10-31T02:01:35.425Z,45.44
2022-10-31T02:02:35.467Z,45.12
2022-10-31T02:03:35.275Z,45.44
2022-10-31T02:04:35.259Z,44.96
2022-10-31T02:05:35.290Z,44.15
2022-10-31T02:06:35.252Z,48.82
2022-10-31T02:07:35.240Z,48.02
2022-10-31T02:08:35.239Z,51.08
2022-10-31T02:09:35.237Z,46.73
2022-10-31T02:10:35.246Z,45.92
2022-10-31T02:11:35.220Z,45.92
2022-10-31T02:12:35.220Z,45.76
2022-10-31T02:13:35.207Z,47.53
2022-10-31T02:14:35.205Z,45.92
2022-10-31T02:15:35.198Z,44.47
2022-10-31T02:16:35.186Z,46.41
2022-10-31T02:17:35.180Z,46.41
2022-10-31T02:18:35.179Z,50.43
2022-10-31T02:19:35.159Z,48.98
2022-10-31T02:20:35.180Z,44.47
2022-10-31T02:21:35.173Z,44.96
2022-10-31T02:22:35.147Z,45.76
2022-10-31T02:23:35.134Z,46.08
2022-10-31T02:24:35.139Z,44.96
2022-10-31T02:25:35.121Z,45.92
2022-10-31T02:26:35.128Z,48.18
2022-10-31T02:27:35.110Z,45.12
2022-10-31T02:28:35.109Z,45.28
2022-10-31T02:29:35.093Z,48.82
2022-10-31T02:30:35.104Z,51.40
2022-10-31T02:31:35.100Z,47.37
2022-10-31T02:32:35.081Z,44.79
2022-10-31T02:33:35.072Z,44.96
2022-10-31T02:34:35.072Z,45.28
2022-10-31T02:35:35.055Z,46.73
2022-10-31T02:36:35.054Z,50.27
2022-10-31T02:37:35.055Z,49.79
2022-10-31T02:38:35.039Z,45.12
2022-10-31T02:39:35.036Z,46.25
2022-10-31T02:40:35.028Z,46.57
2022-10-31T02:41:35.011Z,46.73
2022-10-31T02:42:35.036Z,46.41
2022-10-31T02:43:35.007Z,51.08
2022-10-31T02:44:35.005Z,48.18
2022-10-31T02:45:34.994Z,44.79
2022-10-31T02:46:34.989Z,49.79
2022-10-31T02:47:34.988Z,48.98
2022-10-31T02:48:34.985Z,49.79
2022-10-31T02:49:34.972Z,47.05
2022-10-31T02:50:34.963Z,44.63
2022-10-31T02:51:34.952Z,44.47
2022-10-31T02:52:34.956Z,47.37
2022-10-31T02:53:34.959Z,45.76
2022-10-31T02:54:34.939Z,45.12
2022-10-31T02:55:34.937Z,43.99
2022-10-31T02:56:34.923Z,44.15
2022-10-31T02:57:34.919Z,45.12
2022-10-31T02:58:34.944Z,45.76
2022-10-31T02:59:34.913Z,49.47
2022-10-31T03:00:34.901Z,44.63
2022-10-31T03:01:35.010Z,46.57
2022-10-31T03:02:35.010Z,48.02
2022-10-31T03:03:34.895Z,48.66
2022-10-31T03:04:34.870Z,46.73
2022-10-31T03:05:34.854Z,46.25
2022-10-31T03:06:34.869Z,45.12
2022-10-31T03:07:34.854Z,43.34
2022-10-31T03:08:34.846Z,44.15
2022-10-31T03:09:34.854Z,46.73
2022-10-31T03:10:34.839Z,45.92
2022-10-31T03:11:34.830Z,44.47
2022-10-31T03:12:34.817Z,46.25
2022-10-31T03:13:34.815Z,44.15
2022-10-31T03:14:34.803Z,45.28
2022-10-31T03:15:35.798Z,44.96
2022-10-31T03:16:34.798Z,44.31
2022-10-31T03:17:34.785Z,45.60
2022-10-31T03:18:34.785Z,44.63
2022-10-31T03:19:34.795Z,45.44
2022-10-31T03:20:34.752Z,46.89
2022-10-31T03:21:34.759Z,46.41
2022-10-31T03:22:34.750Z,49.95
2022-10-31T03:23:34.787Z,47.05
2022-10-31T03:24:34.750Z,44.63
2022-10-31T03:25:34.731Z,46.57
2022-10-31T03:26:34.718Z,49.15
2022-10-31T03:27:34.712Z,49.95
2022-10-31T03:28:34.707Z,47.86
2022-10-31T03:29:34.711Z,47.21
2022-10-31T03:30:34.690Z,47.37
2022-10-31T03:31:34.682Z,46.08
2022-10-31T03:32:34.670Z,46.25
2022-10-31T03:33:34.664Z,47.53
2022-10-31T03:34:34.679Z,47.70
2022-10-31T03:35:34.686Z,45.28
2022-10-31T03:36:34.666Z,49.79
2022-10-31T03:37:34.650Z,48.34
2022-10-31T03:38:34.634Z,45.60
2022-10-31T03:39:34.627Z,48.34
2022-10-31T03:40:34.623Z,49.95
2022-10-31T03:41:34.617Z,47.86
2022-10-31T03:42:34.615Z,48.02
2022-10-31T03:43:34.602Z,50.92
2022-10-31T03:44:35.615Z,46.41
2022-10-31T03:45:34.595Z,47.37
2022-10-31T03:46:34.583Z,51.72
2022-10-31T03:47:34.584Z,47.86
2022-10-31T03:48:34.582Z,49.47
2022-10-31T03:49:34.574Z,48.50
2022-10-31T03:50:34.563Z,49.15
2022-10-31T03:51:34.575Z,48.50
2022-10-31T03:52:34.539Z,49.15
2022-10-31T03:53:34.544Z,48.18
2022-10-31T03:54:34.535Z,48.82
2022-10-31T03:55:34.559Z,48.18
2022-10-31T03:56:34.531Z,53.33
2022-10-31T03:57:34.570Z,53.66
2022-10-31T03:58:34.506Z,53.01
2022-10-31T03:59:34.494Z,47.53
2022-10-31T04:00:34.487Z,49.79
2022-10-31T04:01:34.559Z,50.11
2022-10-31T04:02:34.721Z,46.89
2022-10-31T04:03:34.483Z,47.37
2022-10-31T04:04:34.477Z,48.66
2022-10-31T04:05:34.475Z,50.60
2022-10-31T04:06:34.478Z,51.56
2022-10-31T04:07:34.443Z,50.92
2022-10-31T04:08:34.442Z,51.24
2022-10-31T04:09:34.438Z,50.60
2022-10-31T04:10:34.425Z,53.33
2022-10-31T04:11:34.445Z,52.37
2022-10-31T04:12:34.410Z,53.66
2022-10-31T04:13:34.406Z,55.11
2022-10-31T04:14:34.401Z,52.21
2022-10-31T04:15:34.401Z,53.33
2022-10-31T04:16:34.401Z,53.82
2022-10-31T04:17:34.403Z,54.30
2022-10-31T04:18:34.378Z,53.33
2022-10-31T04:19:34.363Z,52.37
2022-10-31T04:20:34.343Z,53.33
2022-10-31T04:21:35.349Z,53.33
2022-10-31T04:22:34.349Z,55.27
2022-10-31T04:23:34.346Z,52.21
2022-10-31T04:24:34.321Z,53.82
2022-10-31T04:25:34.318Z,57.36
2022-10-31T04:26:34.309Z,53.82
2022-10-31T04:27:34.318Z,54.46
2022-10-31T04:28:34.301Z,51.56
2022-10-31T04:29:34.300Z,52.37
2022-10-31T04:30:34.289Z,50.60
2022-10-31T04:31:34.277Z,53.17
2022-10-31T04:32:34.294Z,52.05
2022-10-31T04:33:34.267Z,53.33
2022-10-31T04:34:34.246Z,53.82
2022-10-31T04:35:35.238Z,53.17
2022-10-31T04:36:34.246Z,54.46
2022-10-31T04:37:34.250Z,55.27
2022-10-31T04:38:34.230Z,54.46
2022-10-31T04:39:34.227Z,55.75
2022-10-31T04:40:34.229Z,54.95
2022-10-31T04:41:34.206Z,56.07
2022-10-31T04:42:34.207Z,55.91
2022-10-31T04:43:34.294Z,54.62
2022-10-31T04:44:34.188Z,56.88
2022-10-31T04:45:34.182Z,57.52
2022-10-31T04:46:34.166Z,55.43
2022-10-31T04:47:34.166Z,54.46
2022-10-31T04:48:34.210Z,55.91
2022-10-31T04:49:34.150Z,55.11
2022-10-31T04:50:34.142Z,54.62
2022-10-31T04:51:34.142Z,56.24
2022-10-31T04:52:34.133Z,55.59
2022-10-31T04:53:34.134Z,55.11
2022-10-31T04:54:34.124Z,54.79
2022-10-31T04:55:34.114Z,55.75
2022-10-31T04:56:34.105Z,55.11
2022-10-31T04:57:34.101Z,54.79
2022-10-31T04:58:34.156Z,53.01
2022-10-31T04:59:34.083Z,53.01
2022-10-31T05:00:34.073Z,53.33
2022-10-31T05:01:34.150Z,53.33
2022-10-31T05:02:34.064Z,55.75
2022-10-31T05:03:34.065Z,54.30
2022-10-31T05:04:34.046Z,54.79
2022-10-31T05:05:34.043Z,52.85
2022-10-31T05:06:34.037Z,53.17
2022-10-31T05:07:34.046Z,52.05
2022-10-31T05:08:34.026Z,53.01
2022-10-31T05:09:34.033Z,54.79
2022-10-31T05:10:34.007Z,55.59
2022-10-31T05:11:34.001Z,56.56
2022-10-31T05:12:33.993Z,56.72
2022-10-31T05:13:33.974Z,56.40
2022-10-31T05:14:33.985Z,57.20
2022-10-31T05:15:33.975Z,57.36
2022-10-31T05:16:33.968Z,59.14
2022-10-31T05:17:33.958Z,57.36
2022-10-31T05:18:33.949Z,56.24
2022-10-31T05:19:33.945Z,56.72
2022-10-31T05:20:33.944Z,56.07
2022-10-31T05:21:33.922Z,57.04
2022-10-31T05:22:33.926Z,58.01
2022-10-31T05:23:33.912Z,57.52
2022-10-31T05:24:33.918Z,56.40
2022-10-31T05:25:33.917Z,56.07
2022-10-31T05:26:33.899Z,56.07
2022-10-31T05:27:33.890Z,56.56
2022-10-31T05:28:33.877Z,56.40
2022-10-31T05:29:33.874Z,56.07
2022-10-31T05:30:33.877Z,57.85
2022-10-31T05:31:33.857Z,58.01
2022-10-31T05:32:33.854Z,57.69
2022-10-31T05:33:33.844Z,58.81
2022-10-31T05:34:33.838Z,58.97
2022-10-31T05:35:33.854Z,58.65
2022-10-31T05:36:33.853Z,58.49
2022-10-31T05:37:33.821Z,60.59
2022-10-31T05:38:33.805Z,58.49
2022-10-31T05:39:33.800Z,58.97
2022-10-31T05:40:33.800Z,60.10
2022-10-31T05:41:33.786Z,58.49
2022-10-31T05:42:33.786Z,58.81
2022-10-31T05:43:33.774Z,58.49
2022-10-31T05:44:33.769Z,58.33
2022-10-31T05:45:33.772Z,58.17
2022-10-31T05:47:33.754Z,58.17
2022-10-31T05:48:33.749Z,58.97
2022-10-31T05:49:33.737Z,58.81
2022-10-31T05:50:33.717Z,58.65
2022-10-31T05:51:33.721Z,57.04
2022-10-31T05:52:33.713Z,59.14
2022-10-31T05:53:33.708Z,58.17
2022-10-31T05:54:33.705Z,58.17
2022-10-31T05:55:33.692Z,59.78
2022-10-31T05:56:33.683Z,58.65
2022-10-31T05:57:33.690Z,57.69
2022-10-31T05:58:33.674Z,58.17
2022-10-31T05:59:33.653Z,57.85
2022-10-31T06:00:33.660Z,56.72
2022-10-31T06:01:33.725Z,56.24
2022-10-31T06:02:33.630Z,57.20
2022-10-31T06:03:33.626Z,56.24
2022-10-31T06:04:33.674Z,58.33
2022-10-31T06:05:33.617Z,56.72
2022-10-31T06:06:33.605Z,56.24
2022-10-31T06:07:33.617Z,56.88
2022-10-31T06:08:33.596Z,55.75
2022-10-31T06:09:33.584Z,57.20
2022-10-31T06:10:33.584Z,57.52
2022-10-31T06:11:33.577Z,57.69
2022-10-31T06:12:33.564Z,57.04
2022-10-31T06:13:33.570Z,57.36
2022-10-31T06:14:33.540Z,57.36
2022-10-31T06:15:33.544Z,56.56
2022-10-31T06:16:33.537Z,57.04
2022-10-31T06:17:33.556Z,57.52
2022-10-31T06:18:33.509Z,56.07
2022-10-31T06:19:33.519Z,57.85
2022-10-31T06:20:33.510Z,57.85
2022-10-31T06:21:33.505Z,56.40
2022-10-31T06:22:33.514Z,56.56
2022-10-31T06:23:33.509Z,55.91
2022-10-31T06:24:33.481Z,55.91
2022-10-31T06:25:33.472Z,57.36
2022-10-31T06:26:33.477Z,57.52
2022-10-31T06:27:33.473Z,57.52
2022-10-31T06:28:33.469Z,57.52
2022-10-31T06:29:33.436Z,57.04
2022-10-31T06:30:33.441Z,56.88
2022-10-31T06:31:33.444Z,57.85
2022-10-31T06:32:33.425Z,55.27
2022-10-31T06:33:33.447Z,56.07
2022-10-31T06:34:33.413Z,55.59
2022-10-31T06:35:33.411Z,57.36
2022-10-31T06:36:33.403Z,56.72
2022-10-31T06:37:33.389Z,55.27
2022-10-31T06:38:33.405Z,58.17
2022-10-31T06:39:33.401Z,56.88
2022-10-31T06:40:33.378Z,55.91
2022-10-31T06:41:33.366Z,58.17
2022-10-31T06:42:33.352Z,57.52
2022-10-31T06:43:33.355Z,57.20
2022-10-31T06:44:33.347Z,56.88
2022-10-31T06:45:33.359Z,57.52
2022-10-31T06:46:33.329Z,57.36
2022-10-31T06:47:35.331Z,57.52
2022-10-31T06:48:34.328Z,57.36
2022-10-31T06:49:33.297Z,57.20
2022-10-31T06:50:33.322Z,57.52
2022-10-31T06:51:33.296Z,56.88
2022-10-31T06:52:33.272Z,55.75
2022-10-31T06:53:33.290Z,56.56
2022-10-31T06:54:33.275Z,58.33
2022-10-31T06:55:33.250Z,58.33
2022-10-31T06:56:33.256Z,59.62
2022-10-31T06:57:33.244Z,57.85
2022-10-31T06:58:33.249Z,58.49
2022-10-31T06:59:33.236Z,56.88
2022-10-31T07:00:33.224Z,58.17
2022-10-31T07:01:33.366Z,58.01
2022-10-31T07:02:33.322Z,57.36
2022-10-31T07:03:33.204Z,57.69
2022-10-31T07:04:33.198Z,59.14
2022-10-31T07:05:33.184Z,58.81
2022-10-31T07:06:33.192Z,57.20
2022-10-31T07:07:33.164Z,59.78
2022-10-31T07:08:33.168Z,60.42
2022-10-31T07:09:33.185Z,59.62
2022-10-31T07:10:35.710Z,57.69
2022-10-31T07:11:34.158Z,57.04
2022-10-31T07:12:33.144Z,57.36
2022-10-31T07:13:33.124Z,57.36
2022-10-31T07:14:33.143Z,57.04
2022-10-31T07:15:33.119Z,57.85
2022-10-31T07:16:33.116Z,56.24
2022-10-31T07:17:33.108Z,55.91
2022-10-31T07:18:33.100Z,57.20
2022-10-31T07:19:33.092Z,55.91
2022-10-31T07:20:33.084Z,56.40
2022-10-31T07:21:33.086Z,56.07
2022-10-31T07:22:33.068Z,57.52
2022-10-31T07:23:33.075Z,56.88
2022-10-31T07:24:34.960Z,56.72
2022-10-31T07:25:33.061Z,57.85
2022-10-31T07:26:33.039Z,54.79
2022-10-31T07:27:33.043Z,56.40
2022-10-31T07:28:33.032Z,54.95
2022-10-31T07:29:33.027Z,55.91
2022-10-31T07:30:33.032Z,56.88
2022-10-31T07:31:33.008Z,56.24
2022-10-31T07:32:33.037Z,57.04
2022-10-31T07:33:34.004Z,56.88
2022-10-31T07:34:32.991Z,57.52
2022-10-31T07:35:32.996Z,58.49
2022-10-31T07:36:32.979Z,56.07
2022-10-31T07:37:32.979Z,56.56
2022-10-31T07:38:32.972Z,56.40
2022-10-31T07:39:32.955Z,57.52
2022-10-31T07:40:32.967Z,55.75
2022-10-31T07:41:32.954Z,55.59
2022-10-31T07:42:32.940Z,56.24
2022-10-31T07:43:32.931Z,55.27
2022-10-31T07:44:32.922Z,58.01
2022-10-31T07:45:32.912Z,57.04
2022-10-31T07:46:32.924Z,56.24
2022-10-31T07:47:32.896Z,54.95
2022-10-31T07:48:32.895Z,56.07
2022-10-31T07:49:32.890Z,56.88
2022-10-31T07:50:32.875Z,55.27
2022-10-31T07:51:32.888Z,56.40
2022-10-31T07:52:32.863Z,56.72
2022-10-31T07:53:32.856Z,53.82
2022-10-31T07:54:32.843Z,56.56
2022-10-31T07:55:32.835Z,56.07
2022-10-31T07:56:32.831Z,54.79
2022-10-31T07:57:34.753Z,54.14
2022-10-31T07:58:33.821Z,54.79
2022-10-31T07:59:32.827Z,52.85
2022-10-31T08:00:32.836Z,52.85
2022-10-31T08:01:32.805Z,53.50
2022-10-31T08:02:32.817Z,53.01
2022-10-31T08:03:32.786Z,52.85
2022-10-31T08:04:32.784Z,53.98
2022-10-31T08:05:32.772Z,55.59
2022-10-31T08:06:32.771Z,56.24
2022-10-31T08:07:32.792Z,56.72
2022-10-31T08:08:34.714Z,55.43
2022-10-31T08:09:33.748Z,53.98
2022-10-31T08:10:32.733Z,52.85
2022-10-31T08:11:32.734Z,53.82
2022-10-31T08:12:32.717Z,52.69
2022-10-31T08:13:32.730Z,53.33
2022-10-31T08:14:32.707Z,52.21
2022-10-31T08:15:32.698Z,53.50
2022-10-31T08:16:32.723Z,53.66
2022-10-31T08:17:32.686Z,53.66
2022-10-31T08:18:32.691Z,53.50
2022-10-31T08:19:32.669Z,51.40
2022-10-31T08:20:32.698Z,51.88
2022-10-31T08:21:32.677Z,53.33
2022-10-31T08:22:32.651Z,52.21
2022-10-31T08:23:32.674Z,51.72
2022-10-31T08:24:32.690Z,51.56
2022-10-31T08:25:35.598Z,52.21
2022-10-31T08:26:33.629Z,53.01
2022-10-31T08:27:32.607Z,52.21
2022-10-31T08:28:32.619Z,52.85
2022-10-31T08:29:32.604Z,51.72
2022-10-31T08:30:32.595Z,51.56
2022-10-31T08:31:35.009Z,54.14
2022-10-31T08:32:33.580Z,51.24
2022-10-31T08:33:32.570Z,52.85
2022-10-31T08:34:32.574Z,52.21
2022-10-31T08:35:32.559Z,51.08
2022-10-31T08:36:32.557Z,51.24
2022-10-31T08:37:32.541Z,51.24
2022-10-31T08:38:32.526Z,49.95
2022-10-31T08:39:32.534Z,50.92
2022-10-31T08:40:32.518Z,49.47
2022-10-31T08:41:32.506Z,50.43
2022-10-31T08:42:32.498Z,50.27
2022-10-31T08:43:32.494Z,51.24
2022-10-31T08:44:32.505Z,49.15
2022-10-31T08:45:32.483Z,48.34
2022-10-31T08:46:32.470Z,49.31
2022-10-31T08:47:32.466Z,49.63
2022-10-31T08:48:32.457Z,49.95
2022-10-31T08:49:32.479Z,50.11
2022-10-31T08:50:32.451Z,48.50
2022-10-31T08:51:32.502Z,48.82
2022-10-31T08:52:58.732Z,48.82
2022-10-31T08:53:34.436Z,48.98
2022-10-31T08:54:32.432Z,49.31
2022-10-31T08:55:32.437Z,48.98
2022-10-31T08:56:32.421Z,48.66
2022-10-31T08:57:32.398Z,47.70
2022-10-31T08:58:36.291Z,49.95
2022-10-31T08:59:34.397Z,49.15
2022-10-31T09:00:32.449Z,48.82
2022-10-31T09:01:32.519Z,48.82
2022-10-31T09:02:32.374Z,48.82
2022-10-31T09:03:32.361Z,47.86
2022-10-31T09:04:32.361Z,49.47
2022-10-31T09:05:32.443Z,48.66
2022-10-31T09:06:32.353Z,47.37
2022-10-31T09:07:32.341Z,48.98
2022-10-31T09:08:32.344Z,48.82
2022-10-31T09:09:32.326Z,49.47
2022-10-31T09:10:32.347Z,48.98
2022-10-31T09:11:32.320Z,48.02
2022-10-31T09:12:32.315Z,49.95
2022-10-31T09:13:32.294Z,49.15
2022-10-31T09:14:32.302Z,47.86
2022-10-31T09:15:32.282Z,47.53
2022-10-31T09:16:32.294Z,48.66
2022-10-31T09:17:32.277Z,48.82
2022-10-31T09:18:32.261Z,48.50
2022-10-31T09:19:32.257Z,46.57
2022-10-31T09:20:32.281Z,48.98
2022-10-31T09:21:32.252Z,47.86
2022-10-31T09:22:32.249Z,46.73
2022-10-31T09:23:32.249Z,49.15
2022-10-31T09:24:32.233Z,47.37
2022-10-31T09:25:32.246Z,48.34
2022-10-31T09:26:32.227Z,48.02
2022-10-31T09:27:32.205Z,48.18
2022-10-31T09:28:32.190Z,47.53
2022-10-31T09:29:32.193Z,46.08
2022-10-31T09:30:32.188Z,48.50
2022-10-31T09:31:32.227Z,44.96
2022-10-31T09:32:32.177Z,48.50
2022-10-31T09:33:32.165Z,45.92
2022-10-31T09:34:32.165Z,47.70
2022-10-31T09:35:32.159Z,47.21
2022-10-31T09:36:32.177Z,47.70
2022-10-31T09:37:32.148Z,49.95
2022-10-31T09:38:32.149Z,48.82
2022-10-31T09:39:32.134Z,48.18
2022-10-31T09:40:32.125Z,49.15
2022-10-31T09:41:32.138Z,47.37
2022-10-31T09:42:32.110Z,47.86
2022-10-31T09:43:32.113Z,48.02
2022-10-31T09:44:32.101Z,46.25
2022-10-31T09:45:32.097Z,46.57
2022-10-31T09:46:32.097Z,47.21
2022-10-31T09:47:32.130Z,46.89
2022-10-31T09:48:32.079Z,46.41
2022-10-31T09:49:32.161Z,46.57
2022-10-31T09:50:32.073Z,47.21
2022-10-31T09:51:32.069Z,44.31
2022-10-31T09:52:32.066Z,44.31
2022-10-31T09:53:32.060Z,45.28
2022-10-31T09:54:32.050Z,45.76
2022-10-31T09:55:32.043Z,47.53
2022-10-31T09:56:32.032Z,46.89
2022-10-31T09:57:32.045Z,45.92
2022-10-31T09:58:34.095Z,45.76
2022-10-31T09:59:32.025Z,44.96
2022-10-31T10:00:32.055Z,44.63
2022-10-31T10:01:32.166Z,45.76
2022-10-31T10:02:32.037Z,46.73
2022-10-31T10:03:32.006Z,47.37
2022-10-31T10:04:31.995Z,45.92
2022-10-31T10:05:31.990Z,44.63
2022-10-31T10:06:31.982Z,44.31
2022-10-31T10:07:31.987Z,45.60
2022-10-31T10:08:31.985Z,45.60
2022-10-31T10:09:31.992Z,46.73
2022-10-31T10:10:31.954Z,47.37
2022-10-31T10:11:31.953Z,49.95
2022-10-31T10:12:31.947Z,48.98
2022-10-31T10:13:31.953Z,48.34
2022-10-31T10:14:31.938Z,48.02
2022-10-31T10:15:31.925Z,48.02
2022-10-31T10:16:31.918Z,45.76
2022-10-31T10:17:31.917Z,48.66
2022-10-31T10:18:31.929Z,48.98
2022-10-31T10:19:31.923Z,47.21
2022-10-31T10:20:31.898Z,48.34
2022-10-31T10:21:31.898Z,48.02
2022-10-31T10:22:31.910Z,46.25
2022-10-31T10:23:31.883Z,47.86
2022-10-31T10:24:31.893Z,45.92
2022-10-31T10:25:31.870Z,44.96
2022-10-31T10:27:31.864Z,46.89
2022-10-31T10:28:31.853Z,46.41
2022-10-31T10:29:31.845Z,45.92
2022-10-31T10:30:31.859Z,44.79
2022-10-31T10:31:31.843Z,47.37
2022-10-31T10:32:31.830Z,46.73
2022-10-31T10:33:31.830Z,45.76
2022-10-31T10:34:31.825Z,45.28
2022-10-31T10:35:31.821Z,48.18
2022-10-31T10:36:31.813Z,46.57
2022-10-31T10:37:31.834Z,48.02
2022-10-31T10:38:31.801Z,47.05
2022-10-31T10:39:31.801Z,46.73
2022-10-31T10:40:31.826Z,46.73
2022-10-31T10:41:34.260Z,48.18
2022-10-31T10:42:32.787Z,48.66
2022-10-31T10:43:31.797Z,45.12
2022-10-31T10:44:31.808Z,41.73
2022-10-31T10:45:31.769Z,47.37
2022-10-31T10:46:31.777Z,44.79
2022-10-31T10:47:31.780Z,45.76
2022-10-31T10:48:31.749Z,45.76
2022-10-31T10:49:32.757Z,43.51
2022-10-31T10:50:31.744Z,45.44
2022-10-31T10:51:46.356Z,44.79
2022-10-31T10:52:46.056Z,42.86
2022-10-31T10:53:33.732Z,43.99
2022-10-31T10:54:31.725Z,44.47
2022-10-31T10:55:31.721Z,45.12
2022-10-31T10:56:31.735Z,46.89
2022-10-31T10:57:31.714Z,47.70
2022-10-31T10:58:31.712Z,46.73
2022-10-31T10:59:31.697Z,46.08
2022-10-31T11:00:31.810Z,46.25
2022-10-31T11:01:31.696Z,44.15
2022-10-31T11:02:31.697Z,47.37
2022-10-31T11:03:31.672Z,44.63
2022-10-31T11:04:31.683Z,47.37
2022-10-31T11:05:31.668Z,45.76
2022-10-31T11:06:31.663Z,46.57
2022-10-31T11:07:31.652Z,45.76
2022-10-31T11:08:31.651Z,45.76
2022-10-31T11:09:31.631Z,46.25
2022-10-31T11:10:31.680Z,47.21
2022-10-31T11:11:31.644Z,47.05
2022-10-31T11:12:31.636Z,42.38
2022-10-31T11:13:31.644Z,46.25
2022-10-31T11:14:31.621Z,46.25
2022-10-31T11:15:31.617Z,44.63
2022-10-31T11:16:33.600Z,46.73
2022-10-31T11:17:32.612Z,48.18
2022-10-31T11:18:31.617Z,46.57
2022-10-31T11:19:31.598Z,50.27
2022-10-31T11:20:31.587Z,47.70
2022-10-31T11:21:31.576Z,46.57
2022-10-31T11:22:31.582Z,48.34
2022-10-31T11:23:31.577Z,48.50
2022-10-31T11:24:31.568Z,49.79
2022-10-31T11:25:31.570Z,48.34
2022-10-31T11:26:31.560Z,47.86
2022-10-31T11:27:31.553Z,47.70
2022-10-31T11:28:31.556Z,47.53
2022-10-31T11:29:31.568Z,44.47
2022-10-31T11:30:31.537Z,47.37
2022-10-31T11:31:31.542Z,46.08
2022-10-31T11:32:31.533Z,46.73
2022-10-31T11:33:31.526Z,43.34
2022-10-31T11:34:31.541Z,45.76
2022-10-31T11:35:31.619Z,45.28
2022-10-31T11:36:31.513Z,45.92
2022-10-31T11:37:31.512Z,44.96
2022-10-31T11:38:31.503Z,47.70
2022-10-31T11:39:31.501Z,47.37
2022-10-31T11:40:31.511Z,44.63
2022-10-31T11:41:31.500Z,44.96
2022-10-31T11:42:31.491Z,45.44
2022-10-31T11:43:31.484Z,46.41
2022-10-31T11:44:31.483Z,46.25
2022-10-31T11:45:31.494Z,48.66
2022-10-31T11:46:31.486Z,45.44
2022-10-31T11:47:31.645Z,47.70
2022-10-31T11:48:31.469Z,45.12
2022-10-31T11:49:31.480Z,46.89
2022-10-31T11:50:31.480Z,49.47
2022-10-31T11:51:31.496Z,47.86
2022-10-31T11:52:31.459Z,46.73
2022-10-31T11:53:31.519Z,47.05
2022-10-31T11:54:31.456Z,48.50
2022-10-31T11:55:31.428Z,48.18
2022-10-31T11:56:31.420Z,47.70
2022-10-31T11:57:31.807Z,45.76
2022-10-31T11:58:31.411Z,44.15
2022-10-31T11:59:31.404Z,47.53
2022-10-31T12:00:31.436Z,47.21
2022-10-31T12:01:32.428Z,47.05
2022-10-31T12:02:31.485Z,47.86
2022-10-31T12:03:31.409Z,45.12
2022-10-31T12:04:31.544Z,45.76
2022-10-31T12:05:31.404Z,46.08
2022-10-31T12:06:31.375Z,47.53
2022-10-31T12:07:31.403Z,46.41
2022-10-31T12:08:31.375Z,47.05
2022-10-31T12:09:31.359Z,47.86
2022-10-31T12:10:31.351Z,47.37
2022-10-31T12:11:31.343Z,49.47
2022-10-31T12:12:31.342Z,50.27
2022-10-31T12:13:31.352Z,48.66
2022-10-31T12:14:31.335Z,46.41
2022-10-31T12:15:31.328Z,49.47
2022-10-31T12:16:31.327Z,48.98
2022-10-31T12:17:31.325Z,49.15
2022-10-31T12:18:31.314Z,47.86
2022-10-31T12:19:31.329Z,48.02
2022-10-31T12:20:31.324Z,45.92
2022-10-31T12:21:31.303Z,47.53
2022-10-31T12:22:31.291Z,48.66
2022-10-31T12:23:31.290Z,48.34
2022-10-31T12:24:31.312Z,48.98
2022-10-31T12:25:31.280Z,49.63
2022-10-31T12:26:31.283Z,50.60
2022-10-31T12:27:31.275Z,49.95
2022-10-31T12:28:31.262Z,50.60
2022-10-31T12:29:31.255Z,49.47
2022-10-31T12:30:31.263Z,47.21
2022-10-31T12:31:31.360Z,50.11
2022-10-31T12:32:31.241Z,47.86
2022-10-31T12:33:31.237Z,49.79
2022-10-31T12:34:31.228Z,50.11
2022-10-31T12:35:31.325Z,48.98
2022-10-31T12:36:31.214Z,48.66
2022-10-31T12:37:31.208Z,49.95
2022-10-31T12:38:31.204Z,48.34
2022-10-31T12:39:31.199Z,50.11
2022-10-31T12:40:31.216Z,49.79
2022-10-31T12:41:31.203Z,49.47
2022-10-31T12:42:31.179Z,48.34
2022-10-31T12:43:31.183Z,49.15
2022-10-31T12:44:31.173Z,50.43
2022-10-31T12:45:31.174Z,49.47
2022-10-31T12:46:31.163Z,50.27
2022-10-31T12:47:31.156Z,49.79
2022-10-31T12:48:31.148Z,50.43
2022-10-31T12:49:31.140Z,48.18
2022-10-31T12:50:31.128Z,48.18
2022-10-31T12:51:31.143Z,50.60
2022-10-31T12:52:31.125Z,48.82
2022-10-31T12:53:31.124Z,49.47
2022-10-31T12:54:31.111Z,49.31